sensor_id;sensor_type;location;lat;lon;timestamp;temperature;humidity
46331;DHT22;32049;52.346;4.870;2022-12-11T00:03:00;3.60;99.90
46331;DHT22;32049;52.346;4.870;2022-12-11T00:06:05;3.50;99.90
46331;DHT22;32049;52.346;4.870;2022-12-11T00:09:35;3.60;99.90
46331;DHT22;32049;52.346;4.870;2022-12-11T00:12:35;3.40;99.90
46331;DHT22;32049;52.346;4.870;2022-12-11T00:15:26;3.30;99.90
46331;DHT22;32049;52.346;4.870;2022-12-11T00:18:16;3.60;99.90
46331;DHT22;32049;52.346;4.870;2022-12-11T00:21:06;3.40;99.90
46331;DHT22;32049;52.346;4.870;2022-12-11T00:24:57;3.50;99.90
46331;DHT22;32049;52.346;4.870;2022-12-11T00:28:08;3.40;99.90
46331;DHT22;32049;52.346;4.870;2022-12-11T00:30:55;3.40;99.90
46331;DHT22;32049;52.346;4.870;2022-12-11T00:33:46;3.60;99.90
46331;DHT22;32049;52.346;4.870;2022-12-11T00:36:46;3.50;99.90
46331;DHT22;32049;52.346;4.870;2022-12-11T00:39:36;3.60;99.90
46331;DHT22;32049;52.346;4.870;2022-12-11T00:42:23;3.70;99.90
46331;DHT22;32049;52.346;4.870;2022-12-11T00:45:16;3.60;99.90
46331;DHT22;32049;52.346;4.870;2022-12-11T00:48:14;3.70;99.90
46331;DHT22;32049;52.346;4.870;2022-12-11T00:51:18;3.60;99.90
46331;DHT22;32049;52.346;4.870;2022-12-11T00:54:08;3.60;99.90
46331;DHT22;32049;52.346;4.870;2022-12-11T00:56:59;3.60;99.90
46331;DHT22;32049;52.346;4.870;2022-12-11T00:59:47;3.70;99.90
46331;DHT22;32049;52.346;4.870;2022-12-11T01:02:45;3.50;99.90
46331;DHT22;32049;52.346;4.870;2022-12-11T01:05:36;3.60;99.90
46331;DHT22;32049;52.346;4.870;2022-12-11T01:08:23;3.50;99.90
46331;DHT22;32049;52.346;4.870;2022-12-11T01:11:12;3.70;99.90
46331;DHT22;32049;52.346;4.870;2022-12-11T01:14:12;3.50;99.90
46331;DHT22;32049;52.346;4.870;2022-12-11T01:17:04;3.60;99.90
46331;DHT22;32049;52.346;4.870;2022-12-11T01:20:00;3.70;99.90
46331;DHT22;32049;52.346;4.870;2022-12-11T01:22:57;3.60;99.90
46331;DHT22;32049;52.346;4.870;2022-12-11T01:26:16;3.60;99.90
46331;DHT22;32049;52.346;4.870;2022-12-11T01:29:05;3.60;99.90
46331;DHT22;32049;52.346;4.870;2022-12-11T01:31:58;3.70;99.90
46331;DHT22;32049;52.346;4.870;2022-12-11T01:34:49;3.70;99.90
46331;DHT22;32049;52.346;4.870;2022-12-11T01:37:36;3.60;99.90
46331;DHT22;32049;52.346;4.870;2022-12-11T01:40:23;3.70;99.90
46331;DHT22;32049;52.346;4.870;2022-12-11T01:43:10;3.80;99.90
46331;DHT22;32049;52.346;4.870;2022-12-11T01:45:58;3.70;99.90
46331;DHT22;32049;52.346;4.870;2022-12-11T01:48:47;3.70;99.90
46331;DHT22;32049;52.346;4.870;2022-12-11T01:51:54;3.70;99.90
46331;DHT22;32049;52.346;4.870;2022-12-11T01:54:44;3.70;99.90
46331;DHT22;32049;52.346;4.870;2022-12-11T01:57:39;3.60;99.90
46331;DHT22;32049;52.346;4.870;2022-12-11T02:00:33;3.70;99.90
46331;DHT22;32049;52.346;4.870;2022-12-11T02:03:21;3.70;99.90
46331;DHT22;32049;52.346;4.870;2022-12-11T02:09:23;3.60;99.90
46331;DHT22;32049;52.346;4.870;2022-12-11T02:15:06;3.70;99.90
46331;DHT22;32049;52.346;4.870;2022-12-11T02:20:53;3.60;99.90
46331;DHT22;32049;52.346;4.870;2022-12-11T02:23:52;3.40;99.90
46331;DHT22;32049;52.346;4.870;2022-12-11T02:29:58;3.50;99.90
46331;DHT22;32049;52.346;4.870;2022-12-11T02:35:40;3.60;99.90
46331;DHT22;32049;52.346;4.870;2022-12-11T02:38:36;3.50;99.90
46331;DHT22;32049;52.346;4.870;2022-12-11T02:41:30;3.30;99.90
46331;DHT22;32049;52.346;4.870;2022-12-11T02:44:20;3.50;99.90
46331;DHT22;32049;52.346;4.870;2022-12-11T02:47:10;3.60;99.90
46331;DHT22;32049;52.346;4.870;2022-12-11T02:50:24;3.60;99.90
46331;DHT22;32049;52.346;4.870;2022-12-11T02:53:22;3.70;99.90
46331;DHT22;32049;52.346;4.870;2022-12-11T02:56:21;3.60;99.90
46331;DHT22;32049;52.346;4.870;2022-12-11T02:59:31;3.70;99.90
46331;DHT22;32049;52.346;4.870;2022-12-11T03:02:21;3.70;99.90
46331;DHT22;32049;52.346;4.870;2022-12-11T03:05:15;3.90;99.90
46331;DHT22;32049;52.346;4.870;2022-12-11T03:08:04;3.60;99.90
46331;DHT22;32049;52.346;4.870;2022-12-11T03:10:56;3.60;99.90
46331;DHT22;32049;52.346;4.870;2022-12-11T03:13:44;3.50;99.90
46331;DHT22;32049;52.346;4.870;2022-12-11T03:19:39;3.60;99.90
46331;DHT22;32049;52.346;4.870;2022-12-11T03:25:25;3.50;99.90
46331;DHT22;32049;52.346;4.870;2022-12-11T03:28:17;3.70;99.90
46331;DHT22;32049;52.346;4.870;2022-12-11T09:08:38;3.30;99.90
46331;DHT22;32049;52.346;4.870;2022-12-11T09:11:27;3.50;99.90
46331;DHT22;32049;52.346;4.870;2022-12-11T09:14:15;3.50;99.90
46331;DHT22;32049;52.346;4.870;2022-12-11T09:17:05;3.60;99.90
46331;DHT22;32049;52.346;4.870;2022-12-11T09:19:56;3.50;99.90
46331;DHT22;32049;52.346;4.870;2022-12-11T09:22:44;3.50;99.90
46331;DHT22;32049;52.346;4.870;2022-12-11T09:25:32;3.40;99.90
46331;DHT22;32049;52.346;4.870;2022-12-11T09:28:22;3.40;99.90
46331;DHT22;32049;52.346;4.870;2022-12-11T09:34:33;3.60;99.90
46331;DHT22;32049;52.346;4.870;2022-12-11T09:37:34;3.40;99.90
46331;DHT22;32049;52.346;4.870;2022-12-11T09:40:34;3.70;99.90
46331;DHT22;32049;52.346;4.870;2022-12-11T09:46:37;3.60;99.90
46331;DHT22;32049;52.346;4.870;2022-12-11T09:49:36;3.70;99.90
46331;DHT22;32049;52.346;4.870;2022-12-11T09:55:36;3.60;99.90
46331;DHT22;32049;52.346;4.870;2022-12-11T09:58:42;3.60;99.90
46331;DHT22;32049;52.346;4.870;2022-12-11T10:01:51;3.80;99.90
46331;DHT22;32049;52.346;4.870;2022-12-11T10:07:54;3.70;99.90
46331;DHT22;32049;52.346;4.870;2022-12-11T10:17:19;3.80;99.90
46331;DHT22;32049;52.346;4.870;2022-12-11T10:23:37;3.90;99.90
46331;DHT22;32049;52.346;4.870;2022-12-11T10:26:27;4.00;99.90
46331;DHT22;32049;52.346;4.870;2022-12-11T10:29:23;4.20;99.90
46331;DHT22;32049;52.346;4.870;2022-12-11T10:32:35;4.20;99.90
46331;DHT22;32049;52.346;4.870;2022-12-11T10:35:28;4.20;99.90
46331;DHT22;32049;52.346;4.870;2022-12-11T10:41:36;4.00;99.90
46331;DHT22;32049;52.346;4.870;2022-12-11T10:44:41;4.30;99.90
46331;DHT22;32049;52.346;4.870;2022-12-11T10:48:30;4.30;99.90
46331;DHT22;32049;52.346;4.870;2022-12-11T10:51:19;4.40;99.90
46331;DHT22;32049;52.346;4.870;2022-12-11T11:01:57;4.30;99.90
46331;DHT22;32049;52.346;4.870;2022-12-11T11:04:46;4.50;99.90
46331;DHT22;32049;52.346;4.870;2022-12-11T11:07:33;4.40;99.90
46331;DHT22;32049;52.346;4.870;2022-12-11T11:10:21;4.20;99.90
46331;DHT22;32049;52.346;4.870;2022-12-11T11:13:11;4.40;99.90
46331;DHT22;32049;52.346;4.870;2022-12-11T11:16:06;4.50;99.90
46331;DHT22;32049;52.346;4.870;2022-12-11T11:19:21;4.20;99.90
46331;DHT22;32049;52.346;4.870;2022-12-11T11:22:16;4.10;99.90
46331;DHT22;32049;52.346;4.870;2022-12-11T11:25:04;4.30;99.90
46331;DHT22;32049;52.346;4.870;2022-12-11T11:27:59;4.20;99.90
46331;DHT22;32049;52.346;4.870;2022-12-11T11:31:00;4.40;99.90
46331;DHT22;32049;52.346;4.870;2022-12-11T11:33:59;4.20;99.90
46331;DHT22;32049;52.346;4.870;2022-12-11T11:36:56;4.20;99.90
46331;DHT22;32049;52.346;4.870;2022-12-11T11:39:47;4.20;99.90
46331;DHT22;32049;52.346;4.870;2022-12-11T11:45:51;4.30;99.90
46331;DHT22;32049;52.346;4.870;2022-12-11T11:48:45;4.30;99.90
46331;DHT22;32049;52.346;4.870;2022-12-11T11:51:44;4.40;99.90
46331;DHT22;32049;52.346;4.870;2022-12-11T11:54:34;4.50;99.90
46331;DHT22;32049;52.346;4.870;2022-12-11T11:57:34;4.40;99.90
46331;DHT22;32049;52.346;4.870;2022-12-11T12:00:25;4.40;99.90
46331;DHT22;32049;52.346;4.870;2022-12-11T12:03:20;4.20;99.90
46331;DHT22;32049;52.346;4.870;2022-12-11T12:06:12;4.40;99.90
46331;DHT22;32049;52.346;4.870;2022-12-11T12:21:08;4.40;99.90
46331;DHT22;32049;52.346;4.870;2022-12-11T12:26:59;4.30;99.90
46331;DHT22;32049;52.346;4.870;2022-12-11T12:29:53;4.30;99.90
46331;DHT22;32049;52.346;4.870;2022-12-11T12:32:55;4.10;99.90
46331;DHT22;32049;52.346;4.870;2022-12-11T12:38:51;4.30;99.90
46331;DHT22;32049;52.346;4.870;2022-12-11T12:44:45;4.30;99.90
46331;DHT22;32049;52.346;4.870;2022-12-11T12:47:36;4.40;99.90
46331;DHT22;32049;52.346;4.870;2022-12-11T12:50:25;4.10;99.90
46331;DHT22;32049;52.346;4.870;2022-12-11T12:56:24;4.30;99.90
46331;DHT22;32049;52.346;4.870;2022-12-11T12:59:18;4.40;99.90
46331;DHT22;32049;52.346;4.870;2022-12-11T13:02:11;4.40;99.90
46331;DHT22;32049;52.346;4.870;2022-12-11T13:05:30;4.40;99.90
46331;DHT22;32049;52.346;4.870;2022-12-11T13:31:42;4.20;99.90
46331;DHT22;32049;52.346;4.870;2022-12-11T13:34:31;4.50;99.90
46331;DHT22;32049;52.346;4.870;2022-12-11T13:37:33;4.50;99.90
46331;DHT22;32049;52.346;4.870;2022-12-11T13:40:23;4.70;99.90
46331;DHT22;32049;52.346;4.870;2022-12-11T13:43:16;4.60;99.90
46331;DHT22;32049;52.346;4.870;2022-12-11T13:46:06;4.50;99.90
46331;DHT22;32049;52.346;4.870;2022-12-11T13:48:56;4.60;99.90
46331;DHT22;32049;52.346;4.870;2022-12-11T13:51:52;4.70;99.90
46331;DHT22;32049;52.346;4.870;2022-12-11T13:54:45;4.60;99.90
46331;DHT22;32049;52.346;4.870;2022-12-11T13:57:33;4.60;99.90
46331;DHT22;32049;52.346;4.870;2022-12-11T14:00:21;4.60;99.90
46331;DHT22;32049;52.346;4.870;2022-12-11T14:09:17;4.60;99.90
46331;DHT22;32049;52.346;4.870;2022-12-11T14:12:06;4.60;99.90
46331;DHT22;32049;52.346;4.870;2022-12-11T14:15:01;4.60;99.90
46331;DHT22;32049;52.346;4.870;2022-12-11T14:17:48;4.30;99.90
46331;DHT22;32049;52.346;4.870;2022-12-11T14:20:38;4.40;99.90
46331;DHT22;32049;52.346;4.870;2022-12-11T14:23:26;4.40;99.90
46331;DHT22;32049;52.346;4.870;2022-12-11T14:26:24;4.30;99.90
46331;DHT22;32049;52.346;4.870;2022-12-11T14:29:22;4.30;99.90
46331;DHT22;32049;52.346;4.870;2022-12-11T14:35:17;4.30;99.90
46331;DHT22;32049;52.346;4.870;2022-12-11T14:38:17;4.40;99.90
46331;DHT22;32049;52.346;4.870;2022-12-11T14:44:15;4.40;99.90
46331;DHT22;32049;52.346;4.870;2022-12-11T14:47:04;4.30;99.90
46331;DHT22;32049;52.346;4.870;2022-12-11T14:49:58;4.30;99.90
46331;DHT22;32049;52.346;4.870;2022-12-11T14:52:56;4.50;99.90
46331;DHT22;32049;52.346;4.870;2022-12-11T14:55:46;4.30;99.90
46331;DHT22;32049;52.346;4.870;2022-12-11T14:58:39;4.20;99.90
46331;DHT22;32049;52.346;4.870;2022-12-11T15:01:29;4.50;99.90
46331;DHT22;32049;52.346;4.870;2022-12-11T15:07:15;4.70;99.90
46331;DHT22;32049;52.346;4.870;2022-12-11T15:10:06;4.30;99.90
46331;DHT22;32049;52.346;4.870;2022-12-11T15:12:54;4.30;99.90
46331;DHT22;32049;52.346;4.870;2022-12-11T15:15:45;4.10;99.90
46331;DHT22;32049;52.346;4.870;2022-12-11T15:18:35;4.10;99.90
46331;DHT22;32049;52.346;4.870;2022-12-11T15:21:29;4.10;99.90
46331;DHT22;32049;52.346;4.870;2022-12-11T15:24:21;4.30;99.90
46331;DHT22;32049;52.346;4.870;2022-12-11T15:27:27;4.00;99.90
